Home > Products > Valid Products > TAF

000
FTUS41 KBTV 261730
TAFMPV
TAF
KMPV 261730Z 2618/2718 33006KT P6SM OVC045
     FM270300 VRB04KT P6SM OVC030
     FM270600 VRB03KT P6SM VCSH OVC015
     FM271400 34005KT 3SM -SHRA BR OVC025=



000
FTUS41 KBTV 261730
TAFBTV
TAF
KBTV 261730Z 2618/2718 33006KT P6SM BKN045
     FM270300 VRB03KT P6SM OVC030
     FM270700 VRB04KT P6SM VCSH OVC015
     FM271500 34007KT P6SM -SHRA OVC020=



000
FTUS41 KBTV 261730
TAFMSS
TAF
KMSS 261730Z 2618/2718 32006KT P6SM BKN040
     FM270600 33005KT P6SM VCSH OVC020
     FM271500 34006KT P6SM VCSH OVC025=



000
FTUS41 KBTV 261730
TAFSLK
TAF
KSLK 261730Z 2618/2718 35004KT P6SM BKN035
     FM270400 00000KT P6SM VCSH OVC020
     FM270700 00000KT 6SM BR VCSH OVC010
     FM271100 33005KT 3SM -SHRASN OVC008
     FM271300 34006KT 5SM -SHRA OVC015
     FM271500 35006KT P6SM -SHRA OVC025=



000
FTUS41 KBTV 261730
TAFBTV
TAF
KBTV 261730Z 2618/2718 33006KT P6SM BKN045
     FM270300 VRB03KT P6SM OVC030
     FM270700 VRB04KT P6SM VCSH OVC015
     FM271500 34007KT P6SM -SHRA OVC020=



000
FTUS41 KBTV 261130
TAFSLK
TAF
KSLK 261130Z 2612/2712 33003KT P6SM BKN035 OVC050
     FM261400 33006KT P6SM BKN050
     FM270000 VRB03KT P6SM OVC035
     FM270300 VRB03KT P6SM VCSH OVC025
     FM270600 VRB03KT 4SM -SHRA BR OVC015=



000
FTUS41 KBTV 261130
TAFBTV
TAF
KBTV 261130Z 2612/2712 33006KT P6SM SCT035 BKN060
      TEMPO 2612/2614 BKN025
     FM262200 32003KT P6SM BKN035
     FM270300 VRB03KT P6SM VCSH OVC030
     FM270800 VRB03KT 5SM -SHRA BR OVC020=



000
FTUS41 KBTV 261130
TAFMSS
TAF
KMSS 261130Z 2612/2712 29007KT P6SM BKN050
     FM270000 30005KT P6SM VCSH OVC035=



000
FTUS41 KBTV 261130
TAFMPV
TAF
KMPV 261130Z 2612/2712 33005KT P6SM BKN035 OVC050
     FM270300 VRB03KT P6SM VCSH OVC025
     FM270600 VRB03KT 4SM -SHRA BR OVC015=



000
FTUS41 KBTV 261130
TAFSLK
TAF
KSLK 261130Z 2612/2712 33003KT P6SM BKN035 OVC050
     FM261400 33006KT P6SM BKN050
     FM270000 VRB03KT P6SM OVC035
     FM270300 VRB03KT P6SM VCSH OVC025
     FM270600 VRB03KT 4SM -SHRA BR OVC015=



000
FTUS41 KBTV 261130
TAFBTV
TAF
KBTV 261130Z 2612/2712 33006KT P6SM SCT035 BKN060
      TEMPO 2612/2614 BKN025
     FM262200 32003KT P6SM BKN035
     FM270300 VRB03KT P6SM VCSH OVC030
     FM270800 VRB03KT 5SM -SHRA BR OVC020=



000
FTUS41 KBTV 261130
TAFMSS
TAF
KMSS 261130Z 2612/2712 29007KT P6SM BKN050
     FM270000 30005KT P6SM VCSH OVC035=



000
FTUS41 KBTV 261130
TAFMPV
TAF
KMPV 261130Z 2612/2712 33005KT P6SM BKN035 OVC050
     FM270300 VRB03KT P6SM VCSH OVC025
     FM270600 VRB03KT 4SM -SHRA BR OVC015=



000
FTUS41 KBTV 261002 AAA
TAFBTV
TAF AMD
KBTV 261002Z 2610/2706 32006KT P6SM SCT025 OVC060
      TEMPO 2610/2614 BKN025
     FM261400 32006KT P6SM SCT035 OVC060
     FM261800 33007KT P6SM BKN035
     FM270200 VRB03KT P6SM OVC030=



000
FTUS41 KBTV 260526
TAFMSS
TAF
KMSS 260526Z 2606/2706 29005KT P6SM BKN040
     FM270000 30005KT P6SM OVC035=



000
FTUS41 KBTV 260526
TAFBTV
TAF
KBTV 260526Z 2606/2706 VRB04KT P6SM OVC060
     FM261400 32006KT P6SM SCT035 OVC060
     FM261800 33007KT P6SM BKN035
     FM270200 VRB03KT P6SM OVC030=



000
FTUS41 KBTV 260526
TAFSLK
TAF
KSLK 260526Z 2606/2706 VRB03KT P6SM BKN035 OVC050
     FM261400 33005KT P6SM BKN035 OVC050
     FM270200 VRB03KT P6SM VCSH OVC025=



000
FTUS41 KBTV 260526
TAFMPV
TAF
KMPV 260526Z 2606/2706 VRB03KT P6SM OVC035
     FM261500 33004KT P6SM VCSH BKN035 OVC050
     FM270300 VRB03KT P6SM OVC025=



000
FTUS41 KBTV 260526
TAFBTV
TAF
KBTV 260526Z 2606/2706 VRB04KT P6SM OVC060
     FM261400 32006KT P6SM SCT035 OVC060
     FM261800 33007KT P6SM BKN035
     FM270200 VRB03KT P6SM OVC030=



000
FTUS41 KBTV 260526
TAFMPV
TAF
KMPV 260526Z 2606/2706 VRB03KT P6SM OVC035
     FM261500 33004KT P6SM VCSH BKN035 OVC050
     FM270300 VRB03KT P6SM OVC025=



000
FTUS41 KBTV 260526
TAFSLK
TAF
KSLK 260526Z 2606/2706 VRB03KT P6SM BKN035 OVC050
     FM261400 33005KT P6SM BKN035 OVC050
     FM270200 VRB03KT P6SM VCSH OVC025=



000
FTUS41 KBTV 252320
TAFBTV
TAF
KBTV 252320Z 2600/2624 01005KT P6SM OVC050
     FM260600 33004KT P6SM BKN030 OVC040
     FM261600 31004KT P6SM VCSH BKN035 OVC060=



000
FTUS41 KBTV 252320
TAFSLK
TAF
KSLK 252320Z 2600/2624 32004KT P6SM OVC040
     FM260600 32003KT P6SM BKN025 OVC035
     FM261400 33005KT P6SM VCSH BKN040 OVC060=



000
FTUS41 KBTV 252320
TAFMPV
TAF
KMPV 252320Z 2600/2624 VRB05KT P6SM OVC035
     FM260600 30003KT P6SM BKN025 OVC035
     FM261500 33004KT P6SM VCSH BKN035 OVC060=



000
FTUS41 KBTV 252320
TAFMPV
TAF
KMPV 252320Z 2600/2624 VRB05KT P6SM OVC035
     FM260600 30003KT P6SM BKN025 OVC035
     FM261500 33004KT P6SM VCSH BKN035 OVC060=



000
FTUS41 KBTV 252320
TAFMSS
TAF
KMSS 252320Z 2600/2624 26008KT P6SM OVC050
     FM260500 30004KT P6SM OVC030
     FM261400 31004KT P6SM VCSH OVC060=



000
FTUS41 KBTV 252320
TAFBTV
TAF
KBTV 252320Z 2600/2624 01005KT P6SM OVC050
     FM260600 33004KT P6SM BKN030 OVC040
     FM261600 31004KT P6SM VCSH BKN035 OVC060=



000
FTUS41 KBTV 252320
TAFSLK
TAF
KSLK 252320Z 2600/2624 32004KT P6SM OVC040
     FM260600 32003KT P6SM BKN025 OVC035
     FM261400 33005KT P6SM VCSH BKN040 OVC060=



000
FTUS41 KBTV 252320
TAFMSS
TAF
KMSS 252320Z 2600/2624 26008KT P6SM OVC050
     FM260500 30004KT P6SM OVC030
     FM261400 31004KT P6SM VCSH OVC060=



000
FTUS41 KBTV 251730
TAFBTV
TAF
KBTV 251730Z 2518/2618 33008KT P6SM OVC045
     FM260000 31004KT P6SM SCT045 BKN120
     FM261100 32003KT P6SM BKN030
     FM261400 31004KT P6SM VCSH BKN035=



000
FTUS41 KBTV 251730
TAFSLK
TAF
KSLK 251730Z 2518/2618 31008KT P6SM OVC045
     FM260000 32004KT P6SM OVC040
     FM260900 32003KT P6SM BKN025
     FM261400 33005KT P6SM BKN040=



000
FTUS41 KBTV 251730
TAFBTV
TAF
KBTV 251730Z 2518/2618 33008KT P6SM OVC045
     FM260000 31004KT P6SM SCT045 BKN120
     FM261100 32003KT P6SM BKN030
     FM261400 31004KT P6SM VCSH BKN035=



000
FTUS41 KBTV 251730
TAFMPV
TAF
KMPV 251730Z 2518/2618 32009G15KT P6SM OVC045
     FM252300 31005KT P6SM BKN050
     FM261100 30003KT P6SM BKN030
     FM261500 33004KT P6SM VCSH BKN035=



000
FTUS41 KBTV 251730
TAFMSS
TAF
KMSS 251730Z 2518/2618 29010KT P6SM BKN060
     FM260000 30004KT P6SM BKN050
     FM261200 30004KT P6SM OVC030
     FM261400 31004KT P6SM VCSH OVC035=



000
FTUS41 KBTV 251730
TAFMPV
TAF
KMPV 251730Z 2518/2618 32009G15KT P6SM OVC045
     FM252300 31005KT P6SM BKN050
     FM261100 30003KT P6SM BKN030
     FM261500 33004KT P6SM VCSH BKN035=



000
FTUS41 KBTV 251730
TAFMSS
TAF
KMSS 251730Z 2518/2618 29010KT P6SM BKN060
     FM260000 30004KT P6SM BKN050
     FM261200 30004KT P6SM OVC030
     FM261400 31004KT P6SM VCSH OVC035=



000
FTUS41 KBTV 251730
TAFSLK
TAF
KSLK 251730Z 2518/2618 31008KT P6SM OVC045
     FM260000 32004KT P6SM OVC040
     FM260900 32003KT P6SM BKN025
     FM261400 33005KT P6SM BKN040=



000
FTUS41 KBTV 251256 AAA
TAFSLK
TAF AMD
KSLK 251256Z 2513/2612 26008KT P6SM BKN020 OVC050
     FM260100 VRB03KT P6SM BKN025=



000
FTUS41 KBTV 251127
TAFBTV
TAF
KBTV 251127Z 2512/2612 32008KT P6SM VCSH BKN035 OVC050
     FM251500 32009G17KT P6SM OVC040
     FM252000 33007KT P6SM BKN040 OVC070
     FM260200 32003KT P6SM OVC040=



000
FTUS41 KBTV 251127
TAFMPV
TAF
KMPV 251127Z 2512/2612 31010G18KT P6SM VCSH BKN035 OVC050
      TEMPO 2512/2516 BKN025
     FM260100 31004KT P6SM OVC035=



000
FTUS41 KBTV 251127
TAFMSS
TAF
KMSS 251127Z 2512/2612 27008KT P6SM SCT040 BKN070
     FM251500 28009G17KT P6SM BKN040
     FM260100 28003KT P6SM SCT040=



000
FTUS41 KBTV 251127
TAFBTV
TAF
KBTV 251127Z 2512/2612 32008KT P6SM VCSH BKN035 OVC050
     FM251500 32009G17KT P6SM OVC040
     FM252000 33007KT P6SM BKN040 OVC070
     FM260200 32003KT P6SM OVC040=



000
FTUS41 KBTV 251127
TAFSLK
TAF
KSLK 251127Z 2512/2612 29007KT P6SM SCT025 OVC050
     FM251400 29008G15KT P6SM BKN025 OVC050
     FM260100 VRB03KT P6SM BKN025=



000
FTUS41 KBTV 251127
TAFMPV
TAF
KMPV 251127Z 2512/2612 31010G18KT P6SM VCSH BKN035 OVC050
      TEMPO 2512/2516 BKN025
     FM260100 31004KT P6SM OVC035=



000
FTUS41 KBTV 251127
TAFMSS
TAF
KMSS 251127Z 2512/2612 27008KT P6SM SCT040 BKN070
     FM251500 28009G17KT P6SM BKN040
     FM260100 28003KT P6SM SCT040=



000
FTUS41 KBTV 251127
TAFSLK
TAF
KSLK 251127Z 2512/2612 29007KT P6SM SCT025 OVC050
     FM251400 29008G15KT P6SM BKN025 OVC050
     FM260100 VRB03KT P6SM BKN025=



000
FTUS41 KBTV 250528
TAFSLK
TAF
KSLK 250528Z 2506/2606 30008KT P6SM SCT025 OVC060
     FM251300 29008G15KT P6SM BKN025 OVC050
     FM260100 VRB03KT P6SM BKN025=



000
FTUS41 KBTV 250528
TAFMPV
TAF
KMPV 250528Z 2506/2606 31010KT P6SM OVC035
      TEMPO 2506/2510 4SM -SHSN BR BKN018
     FM251400 31012G18KT P6SM OVC035
     FM260100 31004KT P6SM BKN035=



000
FTUS41 KBTV 250528
TAFMSS
TAF
KMSS 250528Z 2506/2606 30009KT P6SM BKN080
     FM251300 28010G17KT P6SM BKN040=



000
FTUS41 KBTV 250528
TAFBTV
TAF
KBTV 250528Z 2506/2606 32009KT P6SM VCSH BKN035 OVC060
     FM250900 31009KT P6SM BKN040
     FM251500 32009G19KT P6SM OVC040
     FM252200 33007KT P6SM BKN040=



000
FTUS41 KBTV 250528
TAFMPV
TAF
KMPV 250528Z 2506/2606 31010KT P6SM OVC035
      TEMPO 2506/2510 4SM -SHSN BR BKN018
     FM251400 31012G18KT P6SM OVC035
     FM260100 31004KT P6SM BKN035=



000
FTUS41 KBTV 250528
TAFMSS
TAF
KMSS 250528Z 2506/2606 30009KT P6SM BKN080
     FM251300 28010G17KT P6SM BKN040=



000
FTUS41 KBTV 250528
TAFSLK
TAF
KSLK 250528Z 2506/2606 30008KT P6SM SCT025 OVC060
     FM251300 29008G15KT P6SM BKN025 OVC050
     FM260100 VRB03KT P6SM BKN025=



000
FTUS41 KBTV 250528
TAFBTV
TAF
KBTV 250528Z 2506/2606 32009KT P6SM VCSH BKN035 OVC060
     FM250900 31009KT P6SM BKN040
     FM251500 32009G19KT P6SM OVC040
     FM252200 33007KT P6SM BKN040=



000
FTUS41 KBTV 242321
TAFSLK
TAF
KSLK 242321Z 2500/2524 31008KT P6SM OVC035
     FM250400 30008KT P6SM VCSH OVC025
     FM251300 29009G15KT P6SM OVC040=



000
FTUS41 KBTV 242321
TAFMSS
TAF
KMSS 242321Z 2500/2524 29011G20KT P6SM OVC050
     FM250200 30009KT P6SM OVC035
     FM250600 28010KT P6SM BKN020 OVC030
     FM251300 29010G17KT P6SM OVC040=



000
FTUS41 KBTV 242321
TAFBTV
TAF
KBTV 242321Z 2500/2524 31012G22KT P6SM OVC040
     FM250300 30010KT P6SM OVC035
     FM250800 30009KT P6SM VCSH OVC025
     FM251500 32009G19KT P6SM OVC040=



000
FTUS41 KBTV 242321
TAFMPV
TAF
KMPV 242321Z 2500/2524 32009KT P6SM OVC035
     FM250700 31012KT P6SM VCSH OVC025
     FM250900 32010KT 5SM -SNRA BKN015 OVC025
     FM251400 31012G18KT P6SM OVC040=



000
FTUS41 KBTV 242321
TAFSLK
TAF
KSLK 242321Z 2500/2524 31008KT P6SM OVC035
     FM250400 30008KT P6SM VCSH OVC025
     FM251300 29009G15KT P6SM OVC040=



000
FTUS41 KBTV 242321
TAFBTV
TAF
KBTV 242321Z 2500/2524 31012G22KT P6SM OVC040
     FM250300 30010KT P6SM OVC035
     FM250800 30009KT P6SM VCSH OVC025
     FM251500 32009G19KT P6SM OVC040=



000
FTUS41 KBTV 242321
TAFMSS
TAF
KMSS 242321Z 2500/2524 29011G20KT P6SM OVC050
     FM250200 30009KT P6SM OVC035
     FM250600 28010KT P6SM BKN020 OVC030
     FM251300 29010G17KT P6SM OVC040=



000
FTUS41 KBTV 242321
TAFMPV
TAF
KMPV 242321Z 2500/2524 32009KT P6SM OVC035
     FM250700 31012KT P6SM VCSH OVC025
     FM250900 32010KT 5SM -SNRA BKN015 OVC025
     FM251400 31012G18KT P6SM OVC040=



000
FTUS41 KBTV 241723
TAFBTV
TAF
KBTV 241723Z 2418/2518 31012G22KT P6SM BKN040
     FM250500 30008KT P6SM VCSH BKN035
     FM250900 30009KT P6SM OVC030
     FM251500 32009KT P6SM BKN035=



000
FTUS41 KBTV 241723
TAFBTV
TAF
KBTV 241723Z 2418/2518 31012G22KT P6SM BKN040
     FM250500 30008KT P6SM VCSH BKN035
     FM250900 30009KT P6SM OVC030
     FM251500 32009KT P6SM BKN035=



000
FTUS41 KBTV 241723
TAFSLK
TAF
KSLK 241723Z 2418/2518 29009G17KT P6SM BKN030
     FM250000 29009KT P6SM VCSH BKN030
     FM251500 29009G15KT P6SM BKN040=



000
FTUS41 KBTV 241723
TAFMSS
TAF
KMSS 241723Z 2418/2518 29013G18KT P6SM BKN035
     FM250100 30009KT P6SM BKN045
     FM250900 28010KT P6SM BKN030
     FM251500 29010G15KT P6SM BKN035=



000
FTUS41 KBTV 241723
TAFMPV
TAF
KMPV 241723Z 2418/2518 31012G19KT P6SM BKN030
     FM250000 30009KT P6SM VCSH BKN030
     FM251400 31012KT P6SM BKN035=



000
FTUS41 KBTV 241723
TAFMSS
TAF
KMSS 241723Z 2418/2518 29013G18KT P6SM BKN035
     FM250100 30009KT P6SM BKN045
     FM250900 28010KT P6SM BKN030
     FM251500 29010G15KT P6SM BKN035=



000
FTUS41 KBTV 241723
TAFMPV
TAF
KMPV 241723Z 2418/2518 31012G19KT P6SM BKN030
     FM250000 30009KT P6SM VCSH BKN030
     FM251400 31012KT P6SM BKN035=



000
FTUS41 KBTV 241723
TAFSLK
TAF
KSLK 241723Z 2418/2518 29009G17KT P6SM BKN030
     FM250000 29009KT P6SM VCSH BKN030
     FM251500 29009G15KT P6SM BKN040=



000
FTUS41 KBTV 241130
TAFBTV
TAF
KBTV 241130Z 2412/2512 31009G17KT P6SM VCSH OVC035
     FM241500 31013G20KT P6SM BKN045
     FM250000 30008KT P6SM VCSH BKN035=



000
FTUS41 KBTV 241130
TAFMSS
TAF
KMSS 241130Z 2412/2512 27011KT P6SM SCT035 OVC050
     FM241400 27014G21KT P6SM BKN050
     FM250200 27011KT P6SM BKN050=



000
FTUS41 KBTV 241130
TAFSLK
TAF
KSLK 241130Z 2412/2512 26012G17KT P6SM OVC025
     FM241500 28012G20KT P6SM OVC035
     FM250000 26008KT P6SM VCSH OVC035=



000
FTUS41 KBTV 241130
TAFMPV
TAF
KMPV 241130Z 2412/2512 30010G20KT P6SM VCSH OVC030
     FM241500 30013G21KT P6SM BKN040
     FM250000 29008KT P6SM VCSH SCT025 BKN035=



000
FTUS41 KBTV 241130
TAFSLK
TAF
KSLK 241130Z 2412/2512 26012G17KT P6SM OVC025
     FM241500 28012G20KT P6SM OVC035
     FM250000 26008KT P6SM VCSH OVC035=



000
FTUS41 KBTV 241130
TAFMPV
TAF
KMPV 241130Z 2412/2512 30010G20KT P6SM VCSH OVC030
     FM241500 30013G21KT P6SM BKN040
     FM250000 29008KT P6SM VCSH SCT025 BKN035=



000
FTUS41 KBTV 241130
TAFBTV
TAF
KBTV 241130Z 2412/2512 31009G17KT P6SM VCSH OVC035
     FM241500 31013G20KT P6SM BKN045
     FM250000 30008KT P6SM VCSH BKN035=



000
FTUS41 KBTV 241130
TAFMSS
TAF
KMSS 241130Z 2412/2512 27011KT P6SM SCT035 OVC050
     FM241400 27014G21KT P6SM BKN050
     FM250200 27011KT P6SM BKN050=



000
FTUS41 KBTV 240917 AAA
TAFMPV
TAF AMD
KMPV 240917Z 2409/2506 30008G16KT P6SM VCSH SCT020 OVC030
     FM241300 30012G18KT P6SM SCT020 OVC035
     FM241600 30013G21KT P6SM BKN040
     FM250000 29008KT P6SM VCSH SCT025 BKN035=



000
FTUS41 KBTV 240531
TAFMSS
TAF
KMSS 240531Z 2406/2506 27011KT P6SM SCT035 OVC050
     FM241300 27014G21KT P6SM BKN050=



000
FTUS41 KBTV 240531
TAFMPV
TAF
KMPV 240531Z 2406/2506 27008G16KT 4SM -SHSN BR SCT020 OVC030
      TEMPO 2406/2408 2SM -SN BR BKN020
     FM241300 30012G18KT P6SM SCT020 OVC035
     FM241600 30013G21KT P6SM BKN040
     FM250000 29008KT P6SM VCSH SCT025 BKN035=



000
FTUS41 KBTV 240531
TAFBTV
TAF
KBTV 240531Z 2406/2506 29008KT P6SM VCSH OVC035
      TEMPO 2406/2409 OVC028
     FM240900 29008KT P6SM OVC035
     FM241400 31013G20KT P6SM BKN045
     FM250000 30008KT P6SM VCSH BKN035=



000
FTUS41 KBTV 240531
TAFSLK
TAF
KSLK 240531Z 2406/2506 25008KT P6SM VCSH SCT011 OVC020
      TEMPO 2406/2410 3SM -SN BR BKN011
     FM241200 26012G17KT P6SM OVC025
     FM241500 28012G20KT P6SM OVC035
     FM250000 26008KT P6SM VCSH OVC035=



000
FTUS41 KBTV 240332 AAA
TAFBTV
TAF AMD
KBTV 240332Z 2404/2424 29008KT P6SM VCSH OVC035
      TEMPO 2404/2406 OVC028
     FM241200 31013G22KT P6SM OVC035=



000
FTUS41 KBTV 232321
TAFSLK
TAF
KSLK 232321Z 2400/2424 25007KT 4SM -SHSN BR OVC025
      TEMPO 2400/2404 2SM -SN BR OVC015
     FM240400 25008KT 3SM -SHSN BR OVC015
      TEMPO 2404/2408 2SM -SN BR
     FM241200 26012G17KT P6SM VCSH OVC015
     FM241500 28012G20KT P6SM VCSH OVC035=



000
FTUS41 KBTV 232321
TAFMPV
TAF
KMPV 232321Z 2400/2424 27007KT P6SM OVC040
     FM240300 27008G16KT 4SM -SHSN BR OVC020
      TEMPO 2404/2408 2SM -SN BR
     FM241300 30013G18KT P6SM VCSH OVC020
     FM241600 30013G21KT P6SM VCSH BKN040=



000
FTUS41 KBTV 232321
TAFMSS
TAF
KMSS 232321Z 2400/2424 24011KT P6SM VCSH OVC050
     FM240600 25011KT P6SM OVC050
     FM241300 26014G21KT P6SM OVC050=



000
FTUS41 KBTV 232321
TAFBTV
TAF
KBTV 232321Z 2400/2424 29008KT P6SM VCSH OVC035
     FM241200 31013G22KT P6SM OVC035=



000
FTUS41 KBTV 232321
TAFMSS
TAF
KMSS 232321Z 2400/2424 24011KT P6SM VCSH OVC050
     FM240600 25011KT P6SM OVC050
     FM241300 26014G21KT P6SM OVC050=



000
FTUS41 KBTV 232321
TAFMPV
TAF
KMPV 232321Z 2400/2424 27007KT P6SM OVC040
     FM240300 27008G16KT 4SM -SHSN BR OVC020
      TEMPO 2404/2408 2SM -SN BR
     FM241300 30013G18KT P6SM VCSH OVC020
     FM241600 30013G21KT P6SM VCSH BKN040=



000
FTUS41 KBTV 232321
TAFSLK
TAF
KSLK 232321Z 2400/2424 25007KT 4SM -SHSN BR OVC025
      TEMPO 2400/2404 2SM -SN BR OVC015
     FM240400 25008KT 3SM -SHSN BR OVC015
      TEMPO 2404/2408 2SM -SN BR
     FM241200 26012G17KT P6SM VCSH OVC015
     FM241500 28012G20KT P6SM VCSH OVC035=



000
FTUS41 KBTV 232321
TAFBTV
TAF
KBTV 232321Z 2400/2424 29008KT P6SM VCSH OVC035
     FM241200 31013G22KT P6SM OVC035=



    US Dept of Commerce
    National Oceanic and Atmospheric Administration
    National Weather Service
    1325 East West Highway
    Silver Spring, MD 20910
    Page Author: NWS Internet Services Team
Disclaimer
Information Quality
Credits
Glossary
Privacy Policy
Freedom of Information Act (FOIA)
About Us
Career Opportunities